sensor_id;sensor_type;location;lat;lon;timestamp;pressure;altitude;pressure_sealevel;temperature;humidity
29121;BME280;16191;49.548;8.658;2023-09-19T00:00:48;99900.38;;;17.29;100.00
29121;BME280;16191;49.548;8.658;2023-09-19T00:03:16;99894.59;;;17.24;100.00
29121;BME280;16191;49.548;8.658;2023-09-19T00:05:43;99902.28;;;17.27;100.00
29121;BME280;16191;49.548;8.658;2023-09-19T00:08:11;99906.44;;;17.18;100.00
29121;BME280;16191;49.548;8.658;2023-09-19T00:10:40;99903.69;;;17.20;100.00
29121;BME280;16191;49.548;8.658;2023-09-19T00:13:08;99899.34;;;17.19;100.00
29121;BME280;16191;49.548;8.658;2023-09-19T00:15:42;99896.63;;;17.20;100.00
29121;BME280;16191;49.548;8.658;2023-09-19T00:18:15;99905.91;;;17.13;100.00
29121;BME280;16191;49.548;8.658;2023-09-19T00:20:48;99903.38;;;17.11;100.00
29121;BME280;16191;49.548;8.658;2023-09-19T00:23:16;99911.28;;;17.11;100.00
29121;BME280;16191;49.548;8.658;2023-09-19T00:25:43;99905.31;;;17.09;100.00
29121;BME280;16191;49.548;8.658;2023-09-19T00:28:09;99919.34;;;17.10;100.00
29121;BME280;16191;49.548;8.658;2023-09-19T00:30:36;99915.50;;;17.14;100.00
29121;BME280;16191;49.548;8.658;2023-09-19T00:33:05;99918.03;;;17.16;100.00
29121;BME280;16191;49.548;8.658;2023-09-19T00:35:34;99917.81;;;17.19;100.00
29121;BME280;16191;49.548;8.658;2023-09-19T00:38:01;99921.06;;;17.22;100.00
29121;BME280;16191;49.548;8.658;2023-09-19T00:40:29;99917.38;;;17.25;100.00
29121;BME280;16191;49.548;8.658;2023-09-19T00:42:59;99920.75;;;17.27;100.00
29121;BME280;16191;49.548;8.658;2023-09-19T00:45:29;99915.25;;;17.30;100.00
29121;BME280;16191;49.548;8.658;2023-09-19T00:47:56;99920.88;;;17.36;100.00
29121;BME280;16191;49.548;8.658;2023-09-19T00:50:26;99925.19;;;17.26;100.00
29121;BME280;16191;49.548;8.658;2023-09-19T00:52:54;99927.91;;;17.25;100.00
29121;BME280;16191;49.548;8.658;2023-09-19T00:55:25;99928.53;;;17.28;100.00
29121;BME280;16191;49.548;8.658;2023-09-19T00:57:52;99943.53;;;17.28;100.00
29121;BME280;16191;49.548;8.658;2023-09-19T01:00:22;99937.19;;;17.30;100.00
29121;BME280;16191;49.548;8.658;2023-09-19T01:02:50;99940.88;;;17.28;100.00
29121;BME280;16191;49.548;8.658;2023-09-19T01:05:17;99943.31;;;17.31;100.00
29121;BME280;16191;49.548;8.658;2023-09-19T01:07:44;99937.19;;;17.30;100.00
29121;BME280;16191;49.548;8.658;2023-09-19T01:10:14;99932.97;;;17.28;100.00
29121;BME280;16191;49.548;8.658;2023-09-19T01:13:04;99943.75;;;17.25;100.00
29121;BME280;16191;49.548;8.658;2023-09-19T01:18:26;99941.44;;;17.20;100.00
29121;BME280;16191;49.548;8.658;2023-09-19T01:21:27;99950.63;;;17.14;100.00
29121;BME280;16191;49.548;8.658;2023-09-19T01:24:22;99944.41;;;17.16;100.00
29121;BME280;16191;49.548;8.658;2023-09-19T01:30:35;99943.34;;;17.18;100.00
29121;BME280;16191;49.548;8.658;2023-09-19T01:33:25;99944.63;;;17.12;100.00
29121;BME280;16191;49.548;8.658;2023-09-19T01:35:52;99941.88;;;17.14;100.00
29121;BME280;16191;49.548;8.658;2023-09-19T01:38:19;99952.88;;;17.08;100.00
29121;BME280;16191;49.548;8.658;2023-09-19T01:40:57;99946.78;;;17.07;100.00
29121;BME280;16191;49.548;8.658;2023-09-19T01:43:34;99943.19;;;17.08;100.00
29121;BME280;16191;49.548;8.658;2023-09-19T01:46:09;99945.56;;;17.11;100.00
29121;BME280;16191;49.548;8.658;2023-09-19T01:54:30;99950.13;;;17.09;100.00
29121;BME280;16191;49.548;8.658;2023-09-19T01:57:04;99954.22;;;17.13;100.00
29121;BME280;16191;49.548;8.658;2023-09-19T01:59:39;99957.31;;;17.07;100.00
29121;BME280;16191;49.548;8.658;2023-09-19T02:02:08;99955.75;;;17.05;100.00
29121;BME280;16191;49.548;8.658;2023-09-19T02:04:35;99950.56;;;17.03;100.00
29121;BME280;16191;49.548;8.658;2023-09-19T02:07:02;99955.13;;;17.01;100.00
29121;BME280;16191;49.548;8.658;2023-09-19T02:09:32;99953.94;;;17.05;100.00
29121;BME280;16191;49.548;8.658;2023-09-19T02:12:02;99961.22;;;17.02;100.00
29121;BME280;16191;49.548;8.658;2023-09-19T02:14:30;99965.75;;;17.00;100.00
29121;BME280;16191;49.548;8.658;2023-09-19T02:16:57;99963.34;;;16.97;100.00
29121;BME280;16191;49.548;8.658;2023-09-19T02:19:24;99967.78;;;16.96;100.00
29121;BME280;16191;49.548;8.658;2023-09-19T02:21:51;99970.41;;;16.96;100.00
29121;BME280;16191;49.548;8.658;2023-09-19T02:24:18;99970.09;;;17.01;100.00
29121;BME280;16191;49.548;8.658;2023-09-19T02:26:45;99982.22;;;17.03;100.00
29121;BME280;16191;49.548;8.658;2023-09-19T02:29:12;99985.81;;;16.90;100.00
29121;BME280;16191;49.548;8.658;2023-09-19T02:31:40;99998.28;;;16.88;100.00
29121;BME280;16191;49.548;8.658;2023-09-19T02:34:07;99994.25;;;16.95;100.00
29121;BME280;16191;49.548;8.658;2023-09-19T02:36:36;100000.66;;;17.03;100.00
29121;BME280;16191;49.548;8.658;2023-09-19T02:39:03;99994.53;;;17.03;100.00
29121;BME280;16191;49.548;8.658;2023-09-19T02:41:31;99991.72;;;16.93;100.00
29121;BME280;16191;49.548;8.658;2023-09-19T02:43:59;99998.13;;;16.89;100.00
29121;BME280;16191;49.548;8.658;2023-09-19T02:46:26;99996.34;;;16.90;100.00
29121;BME280;16191;49.548;8.658;2023-09-19T02:48:53;100000.19;;;16.86;100.00
29121;BME280;16191;49.548;8.658;2023-09-19T02:51:21;100002.81;;;16.86;100.00
29121;BME280;16191;49.548;8.658;2023-09-19T02:53:49;100001.97;;;16.85;100.00
29121;BME280;16191;49.548;8.658;2023-09-19T02:56:16;100004.72;;;16.84;100.00
29121;BME280;16191;49.548;8.658;2023-09-19T02:58:42;100013.16;;;16.89;100.00
29121;BME280;16191;49.548;8.658;2023-09-19T03:01:10;100012.31;;;16.88;100.00
29121;BME280;16191;49.548;8.658;2023-09-19T03:03:40;100016.00;;;16.86;100.00
29121;BME280;16191;49.548;8.658;2023-09-19T03:06:08;100018.84;;;16.83;100.00
29121;BME280;16191;49.548;8.658;2023-09-19T03:08:39;100021.25;;;16.86;100.00
29121;BME280;16191;49.548;8.658;2023-09-19T03:11:08;100022.84;;;16.88;100.00
29121;BME280;16191;49.548;8.658;2023-09-19T03:13:59;100026.31;;;16.89;100.00
29121;BME280;16191;49.548;8.658;2023-09-19T03:16:26;100022.09;;;16.86;100.00
29121;BME280;16191;49.548;8.658;2023-09-19T03:18:56;100031.38;;;16.79;100.00
29121;BME280;16191;49.548;8.658;2023-09-19T03:21:23;100024.22;;;16.81;100.00
29121;BME280;16191;49.548;8.658;2023-09-19T03:23:49;100032.22;;;16.79;100.00
29121;BME280;16191;49.548;8.658;2023-09-19T03:26:38;100028.53;;;16.82;100.00
29121;BME280;16191;49.548;8.658;2023-09-19T03:29:05;100033.06;;;16.80;100.00
29121;BME280;16191;49.548;8.658;2023-09-19T03:31:37;100027.28;;;16.75;100.00
29121;BME280;16191;49.548;8.658;2023-09-19T03:34:05;100034.88;;;16.67;100.00
29121;BME280;16191;49.548;8.658;2023-09-19T03:36:35;100028.63;;;16.68;100.00
29121;BME280;16191;49.548;8.658;2023-09-19T03:39:02;100036.88;;;16.63;100.00
29121;BME280;16191;49.548;8.658;2023-09-19T03:41:31;100041.88;;;16.54;100.00
29121;BME280;16191;49.548;8.658;2023-09-19T03:43:59;100034.94;;;16.53;100.00
29121;BME280;16191;49.548;8.658;2023-09-19T03:46:26;100036.19;;;16.47;100.00
29121;BME280;16191;49.548;8.658;2023-09-19T03:48:53;100030.31;;;16.43;100.00
29121;BME280;16191;49.548;8.658;2023-09-19T03:51:21;100031.88;;;16.46;100.00
29121;BME280;16191;49.548;8.658;2023-09-19T03:53:48;100043.50;;;16.43;100.00
29121;BME280;16191;49.548;8.658;2023-09-19T03:56:16;100043.91;;;16.37;100.00
29121;BME280;16191;49.548;8.658;2023-09-19T03:58:43;100041.25;;;16.37;100.00
29121;BME280;16191;49.548;8.658;2023-09-19T04:01:09;100043.25;;;16.34;100.00
29121;BME280;16191;49.548;8.658;2023-09-19T04:03:36;100044.94;;;16.35;100.00
29121;BME280;16191;49.548;8.658;2023-09-19T04:06:14;100044.19;;;16.33;100.00
29121;BME280;16191;49.548;8.658;2023-09-19T04:08:41;100047.13;;;16.28;100.00
29121;BME280;16191;49.548;8.658;2023-09-19T04:11:08;100052.09;;;16.20;100.00
29121;BME280;16191;49.548;8.658;2023-09-19T04:13:35;100044.19;;;16.20;100.00
29121;BME280;16191;49.548;8.658;2023-09-19T04:16:03;100052.41;;;16.16;100.00
29121;BME280;16191;49.548;8.658;2023-09-19T04:18:36;100058.31;;;16.19;100.00
29121;BME280;16191;49.548;8.658;2023-09-19T04:21:05;100053.63;;;16.10;100.00
29121;BME280;16191;49.548;8.658;2023-09-19T04:23:33;100055.44;;;16.09;100.00
29121;BME280;16191;49.548;8.658;2023-09-19T04:25:59;100051.56;;;16.15;100.00
29121;BME280;16191;49.548;8.658;2023-09-19T04:28:26;100062.69;;;16.06;100.00
29121;BME280;16191;49.548;8.658;2023-09-19T04:30:54;100072.47;;;16.04;100.00
29121;BME280;16191;49.548;8.658;2023-09-19T04:33:21;100068.88;;;16.05;100.00
29121;BME280;16191;49.548;8.658;2023-09-19T04:35:51;100075.31;;;16.01;100.00
29121;BME280;16191;49.548;8.658;2023-09-19T04:38:20;100081.72;;;15.97;100.00
29121;BME280;16191;49.548;8.658;2023-09-19T04:40:47;100082.66;;;15.96;100.00
29121;BME280;16191;49.548;8.658;2023-09-19T04:43:14;100087.94;;;15.96;100.00
29121;BME280;16191;49.548;8.658;2023-09-19T04:45:42;100087.94;;;15.96;100.00
29121;BME280;16191;49.548;8.658;2023-09-19T04:48:08;100083.72;;;15.93;100.00
29121;BME280;16191;49.548;8.658;2023-09-19T04:50:35;100085.50;;;15.93;100.00
29121;BME280;16191;49.548;8.658;2023-09-19T04:53:03;100099.78;;;15.89;100.00
29121;BME280;16191;49.548;8.658;2023-09-19T04:55:31;100097.34;;;15.86;100.00
29121;BME280;16191;49.548;8.658;2023-09-19T04:57:59;100111.66;;;15.82;100.00
29121;BME280;16191;49.548;8.658;2023-09-19T05:00:26;100114.00;;;15.86;100.00
29121;BME280;16191;49.548;8.658;2023-09-19T05:02:56;100105.66;;;15.80;100.00
29121;BME280;16191;49.548;8.658;2023-09-19T05:05:23;100105.66;;;15.80;100.00
29121;BME280;16191;49.548;8.658;2023-09-19T05:07:52;100115.34;;;15.79;100.00
29121;BME280;16191;49.548;8.658;2023-09-19T05:10:20;100124.81;;;15.82;100.00
29121;BME280;16191;49.548;8.658;2023-09-19T05:12:46;100135.75;;;15.75;100.00
29121;BME280;16191;49.548;8.658;2023-09-19T05:15:14;100129.81;;;15.72;100.00
29121;BME280;16191;49.548;8.658;2023-09-19T05:17:52;100140.16;;;15.75;100.00
29121;BME280;16191;49.548;8.658;2023-09-19T05:20:24;100135.75;;;15.75;100.00
29121;BME280;16191;49.548;8.658;2023-09-19T05:23:00;100148.06;;;15.75;100.00
29121;BME280;16191;49.548;8.658;2023-09-19T05:25:30;100155.19;;;15.73;100.00
29121;BME280;16191;49.548;8.658;2023-09-19T05:27:58;100164.69;;;15.75;100.00
29121;BME280;16191;49.548;8.658;2023-09-19T05:30:26;100157.25;;;15.68;100.00
29121;BME280;16191;49.548;8.658;2023-09-19T05:32:56;100155.56;;;15.67;100.00
29121;BME280;16191;49.548;8.658;2023-09-19T05:35:24;100160.94;;;15.65;100.00
29121;BME280;16191;49.548;8.658;2023-09-19T05:37:51;100158.66;;;15.73;100.00
29121;BME280;16191;49.548;8.658;2023-09-19T05:40:18;100163.09;;;15.73;100.00
29121;BME280;16191;49.548;8.658;2023-09-19T05:42:46;100165.63;;;15.74;100.00
29121;BME280;16191;49.548;8.658;2023-09-19T05:45:13;100171.91;;;15.72;100.00
29121;BME280;16191;49.548;8.658;2023-09-19T05:47:40;100168.25;;;15.74;100.00
29121;BME280;16191;49.548;8.658;2023-09-19T05:50:12;100163.09;;;15.73;100.00
29121;BME280;16191;49.548;8.658;2023-09-19T05:52:39;100167.13;;;15.79;100.00
29121;BME280;16191;49.548;8.658;2023-09-19T05:55:06;100169.00;;;15.76;100.00
29121;BME280;16191;49.548;8.658;2023-09-19T05:57:34;100166.06;;;15.81;100.00
29121;BME280;16191;49.548;8.658;2023-09-19T06:00:01;100166.19;;;15.80;100.00
29121;BME280;16191;49.548;8.658;2023-09-19T06:02:37;100165.88;;;15.84;100.00
29121;BME280;16191;49.548;8.658;2023-09-19T06:05:05;100173.00;;;15.82;100.00
29121;BME280;16191;49.548;8.658;2023-09-19T06:07:38;100177.31;;;15.83;100.00
29121;BME280;16191;49.548;8.658;2023-09-19T06:10:05;100183.53;;;15.82;100.00
29121;BME280;16191;49.548;8.658;2023-09-19T06:12:38;100181.38;;;15.89;100.00
29121;BME280;16191;49.548;8.658;2023-09-19T06:15:05;100190.38;;;15.99;100.00
29121;BME280;16191;49.548;8.658;2023-09-19T06:17:58;100191.97;;;16.01;100.00
29121;BME280;16191;49.548;8.658;2023-09-19T06:20:26;100197.94;;;16.03;100.00
29121;BME280;16191;49.548;8.658;2023-09-19T06:22:53;100193.81;;;16.14;100.00
29121;BME280;16191;49.548;8.658;2023-09-19T06:25:21;100203.28;;;16.16;100.00
29121;BME280;16191;49.548;8.658;2023-09-19T06:27:49;100200.28;;;16.22;100.00
29121;BME280;16191;49.548;8.658;2023-09-19T06:30:19;100205.91;;;16.16;100.00
29121;BME280;16191;49.548;8.658;2023-09-19T06:32:46;100197.63;;;16.22;100.00
29121;BME280;16191;49.548;8.658;2023-09-19T06:35:14;100200.47;;;16.19;100.00
29121;BME280;16191;49.548;8.658;2023-09-19T06:37:42;100201.00;;;16.24;100.00
29121;BME280;16191;49.548;8.658;2023-09-19T06:40:13;100208.69;;;16.27;100.00
29121;BME280;16191;49.548;8.658;2023-09-19T06:42:47;100213.19;;;16.39;100.00
29121;BME280;16191;49.548;8.658;2023-09-19T06:45:16;100210.97;;;16.46;100.00
29121;BME280;16191;49.548;8.658;2023-09-19T06:47:46;100211.19;;;16.43;100.00
29121;BME280;16191;49.548;8.658;2023-09-19T06:50:20;100210.66;;;16.51;100.00
29121;BME280;16191;49.548;8.658;2023-09-19T06:52:53;100216.47;;;16.56;100.00
29121;BME280;16191;49.548;8.658;2023-09-19T06:55:22;100221.47;;;16.60;100.00
29121;BME280;16191;49.548;8.658;2023-09-19T06:57:51;100231.81;;;16.63;100.00
29121;BME280;16191;49.548;8.658;2023-09-19T07:00:20;100236.06;;;16.66;100.00
29121;BME280;16191;49.548;8.658;2023-09-19T07:02:57;100232.59;;;16.78;100.00
29121;BME280;16191;49.548;8.658;2023-09-19T07:05:27;100249.09;;;16.67;100.00
29121;BME280;16191;49.548;8.658;2023-09-19T07:07:54;100247.13;;;16.71;100.00
29121;BME280;16191;49.548;8.658;2023-09-19T07:10:22;100251.88;;;16.78;100.00
29121;BME280;16191;49.548;8.658;2023-09-19T07:12:55;100252.72;;;16.79;100.00
29121;BME280;16191;49.548;8.658;2023-09-19T07:15:24;100251.88;;;16.78;100.00
29121;BME280;16191;49.548;8.658;2023-09-19T07:17:52;100248.22;;;16.81;100.00
29121;BME280;16191;49.548;8.658;2023-09-19T07:20:24;100253.19;;;16.86;100.00
29121;BME280;16191;49.548;8.658;2023-09-19T07:23:01;100252.34;;;16.98;100.00
29121;BME280;16191;49.548;8.658;2023-09-19T07:25:28;100249.94;;;17.07;100.00
29121;BME280;16191;49.548;8.658;2023-09-19T07:27:55;100252.25;;;16.99;100.00
29121;BME280;16191;49.548;8.658;2023-09-19T07:30:22;100260.06;;;17.13;100.00
29121;BME280;16191;49.548;8.658;2023-09-19T07:32:49;100257.22;;;17.04;100.00
29121;BME280;16191;49.548;8.658;2023-09-19T07:35:16;100263.22;;;17.06;100.00
29121;BME280;16191;49.548;8.658;2023-09-19T07:37:43;100267.66;;;17.18;100.00
29121;BME280;16191;49.548;8.658;2023-09-19T07:40:10;100274.97;;;17.27;100.00
29121;BME280;16191;49.548;8.658;2023-09-19T07:42:37;100282.19;;;17.11;100.00
29121;BME280;16191;49.548;8.658;2023-09-19T07:45:08;100276.75;;;17.27;100.00
29121;BME280;16191;49.548;8.658;2023-09-19T07:47:35;100276.44;;;17.44;100.00
29121;BME280;16191;49.548;8.658;2023-09-19T07:50:03;100287.53;;;17.49;100.00
29121;BME280;16191;49.548;8.658;2023-09-19T07:52:29;100278.66;;;17.50;100.00
29121;BME280;16191;49.548;8.658;2023-09-19T07:54:56;100291.13;;;17.48;100.00
29121;BME280;16191;49.548;8.658;2023-09-19T07:57:24;100292.41;;;17.68;100.00
29121;BME280;16191;49.548;8.658;2023-09-19T07:59:51;100278.56;;;17.64;100.00
29121;BME280;16191;49.548;8.658;2023-09-19T08:02:17;100277.09;;;17.73;100.00
29121;BME280;16191;49.548;8.658;2023-09-19T08:04:45;100280.34;;;17.76;100.00
29121;BME280;16191;49.548;8.658;2023-09-19T08:07:12;100292.19;;;17.71;100.00
29121;BME280;16191;49.548;8.658;2023-09-19T08:09:42;100287.22;;;17.54;100.00
29121;BME280;16191;49.548;8.658;2023-09-19T08:12:12;100293.34;;;17.79;100.00
29121;BME280;16191;49.548;8.658;2023-09-19T08:14:39;100295.03;;;17.93;100.00
29121;BME280;16191;49.548;8.658;2023-09-19T08:17:07;100299.34;;;17.94;100.00
29121;BME280;16191;49.548;8.658;2023-09-19T08:19:35;100314.63;;;18.14;100.00
29121;BME280;16191;49.548;8.658;2023-09-19T08:22:03;100311.78;;;18.05;100.00
29121;BME280;16191;49.548;8.658;2023-09-19T08:24:30;100310.25;;;18.26;100.00
29121;BME280;16191;49.548;8.658;2023-09-19T08:26:57;100314.78;;;18.37;100.00
29121;BME280;16191;49.548;8.658;2023-09-19T08:29:25;100321.38;;;18.19;100.00
29121;BME280;16191;49.548;8.658;2023-09-19T08:31:55;100325.81;;;18.18;100.00
29121;BME280;16191;49.548;8.658;2023-09-19T08:34:26;100328.69;;;18.15;100.00
29121;BME280;16191;49.548;8.658;2023-09-19T08:36:54;100331.84;;;18.07;100.00
29121;BME280;16191;49.548;8.658;2023-09-19T08:39:24;100325.09;;;18.16;100.00
29121;BME280;16191;49.548;8.658;2023-09-19T08:41:58;100327.16;;;18.24;100.00
29121;BME280;16191;49.548;8.658;2023-09-19T08:44:26;100326.56;;;18.07;100.00
29121;BME280;16191;49.548;8.658;2023-09-19T08:46:55;100325.94;;;18.17;100.00
29121;BME280;16191;49.548;8.658;2023-09-19T08:49:27;100332.06;;;18.17;100.00
29121;BME280;16191;49.548;8.658;2023-09-19T08:52:16;100336.69;;;18.13;100.00
29121;BME280;16191;49.548;8.658;2023-09-19T08:54:48;100335.53;;;18.05;100.00
29121;BME280;16191;49.548;8.658;2023-09-19T08:57:16;100334.75;;;18.28;100.00
29121;BME280;16191;49.548;8.658;2023-09-19T08:59:50;100332.38;;;18.49;100.00
29121;BME280;16191;49.548;8.658;2023-09-19T09:02:18;100341.97;;;18.63;100.00
29121;BME280;16191;49.548;8.658;2023-09-19T09:04:49;100338.22;;;19.02;100.00
29121;BME280;16191;49.548;8.658;2023-09-19T09:07:16;100346.09;;;18.91;99.47
29121;BME280;16191;49.548;8.658;2023-09-19T09:09:43;100329.59;;;18.87;100.00
29121;BME280;16191;49.548;8.658;2023-09-19T09:12:11;100333.53;;;19.05;99.37
29121;BME280;16191;49.548;8.658;2023-09-19T09:14:40;100332.88;;;18.91;97.43
29121;BME280;16191;49.548;8.658;2023-09-19T09:17:07;100334.78;;;18.89;93.98
29121;BME280;16191;49.548;8.658;2023-09-19T09:19:34;100356.03;;;18.87;93.23
29121;BME280;16191;49.548;8.658;2023-09-19T09:22:08;100358.31;;;19.04;91.07
29121;BME280;16191;49.548;8.658;2023-09-19T09:24:35;100344.03;;;18.83;88.67
29121;BME280;16191;49.548;8.658;2023-09-19T09:27:06;100340.41;;;18.84;87.64
29121;BME280;16191;49.548;8.658;2023-09-19T09:29:48;100346.81;;;19.16;88.68
29121;BME280;16191;49.548;8.658;2023-09-19T09:32:19;100341.75;;;19.13;87.20
29121;BME280;16191;49.548;8.658;2023-09-19T09:34:49;100349.94;;;19.22;85.96
29121;BME280;16191;49.548;8.658;2023-09-19T09:37:17;100351.66;;;19.23;86.92
29121;BME280;16191;49.548;8.658;2023-09-19T09:39:53;100360.09;;;19.39;85.24
29121;BME280;16191;49.548;8.658;2023-09-19T09:42:38;100347.84;;;19.38;81.39
29121;BME280;16191;49.548;8.658;2023-09-19T09:47:46;100372.41;;;19.16;75.98
29121;BME280;16191;49.548;8.658;2023-09-19T09:50:25;100337.94;;;19.29;73.69
29121;BME280;16191;49.548;8.658;2023-09-19T09:53:26;100346.91;;;19.50;72.60
29121;BME280;16191;49.548;8.658;2023-09-19T09:56:08;100350.88;;;19.44;70.30
29121;BME280;16191;49.548;8.658;2023-09-19T09:58:37;100358.66;;;19.35;72.17
29121;BME280;16191;49.548;8.658;2023-09-19T10:01:07;100345.88;;;19.64;73.55
29121;BME280;16191;49.548;8.658;2023-09-19T10:03:38;100338.66;;;19.77;72.46
29121;BME280;16191;49.548;8.658;2023-09-19T10:06:15;100344.50;;;19.47;77.11
29121;BME280;16191;49.548;8.658;2023-09-19T10:08:58;100336.00;;;19.55;75.82
29121;BME280;16191;49.548;8.658;2023-09-19T10:11:45;100344.38;;;19.48;77.51
29121;BME280;16191;49.548;8.658;2023-09-19T10:14:15;100342.38;;;19.74;77.12
29121;BME280;16191;49.548;8.658;2023-09-19T10:16:48;100330.13;;;19.96;75.59
29121;BME280;16191;49.548;8.658;2023-09-19T10:19:27;100323.13;;;20.17;74.35
29121;BME280;16191;49.548;8.658;2023-09-19T10:21:57;100321.81;;;20.45;73.98
29121;BME280;16191;49.548;8.658;2023-09-19T10:24:25;100320.53;;;20.71;72.17
29121;BME280;16191;49.548;8.658;2023-09-19T10:26:54;100323.84;;;20.52;72.58
29121;BME280;16191;49.548;8.658;2023-09-19T10:29:22;100324.81;;;20.51;72.60
29121;BME280;16191;49.548;8.658;2023-09-19T10:31:52;100320.97;;;20.44;73.90
29121;BME280;16191;49.548;8.658;2023-09-19T10:34:20;100323.75;;;19.87;76.99
29121;BME280;16191;49.548;8.658;2023-09-19T10:36:51;100321.69;;;19.79;80.45
29121;BME280;16191;49.548;8.658;2023-09-19T10:39:18;100314.25;;;19.96;79.68
29121;BME280;16191;49.548;8.658;2023-09-19T10:41:53;100308.59;;;20.11;76.72
29121;BME280;16191;49.548;8.658;2023-09-19T10:44:25;100326.09;;;20.57;73.79
29121;BME280;16191;49.548;8.658;2023-09-19T10:46:52;100329.41;;;20.38;73.75
29121;BME280;16191;49.548;8.658;2023-09-19T10:49:20;100335.25;;;19.52;76.87
29121;BME280;16191;49.548;8.658;2023-09-19T10:51:51;100319.41;;;19.97;75.50
29121;BME280;16191;49.548;8.658;2023-09-19T10:54:22;100319.53;;;20.29;73.63
29121;BME280;16191;49.548;8.658;2023-09-19T10:56:53;100329.03;;;20.20;73.00
29121;BME280;16191;49.548;8.658;2023-09-19T10:59:21;100319.75;;;20.37;73.39
29121;BME280;16191;49.548;8.658;2023-09-19T11:01:50;100324.69;;;20.42;74.82
29121;BME280;16191;49.548;8.658;2023-09-19T11:04:24;100314.34;;;20.39;72.37
29121;BME280;16191;49.548;8.658;2023-09-19T11:07:03;100319.78;;;20.80;70.88
29121;BME280;16191;49.548;8.658;2023-09-19T11:09:50;100329.03;;;20.54;70.73
29121;BME280;16191;49.548;8.658;2023-09-19T11:16:02;100308.63;;;20.98;67.71
29121;BME280;16191;49.548;8.658;2023-09-19T11:26:43;100288.41;;;21.59;61.27
29121;BME280;16191;49.548;8.658;2023-09-19T11:29:30;100302.66;;;21.37;59.18
29121;BME280;16191;49.548;8.658;2023-09-19T11:31:58;100301.81;;;21.37;59.03
29121;BME280;16191;49.548;8.658;2023-09-19T11:40:08;100280.72;;;21.66;59.46
29121;BME280;16191;49.548;8.658;2023-09-19T11:42:44;100270.88;;;21.77;57.43
29121;BME280;16191;49.548;8.658;2023-09-19T11:48:18;100279.44;;;22.21;57.88
29121;BME280;16191;49.548;8.658;2023-09-19T11:50:45;100276.78;;;22.31;56.74
29121;BME280;16191;49.548;8.658;2023-09-19T11:53:13;100284.25;;;22.75;55.71
29121;BME280;16191;49.548;8.658;2023-09-19T11:55:43;100286.06;;;22.75;55.32
29121;BME280;16191;49.548;8.658;2023-09-19T11:58:15;100279.59;;;21.59;57.91
29121;BME280;16191;49.548;8.658;2023-09-19T12:00:44;100274.91;;;22.12;57.78
29121;BME280;16191;49.548;8.658;2023-09-19T12:03:12;100274.22;;;21.79;58.13
29121;BME280;16191;49.548;8.658;2023-09-19T12:05:41;100266.88;;;22.52;54.15
29121;BME280;16191;49.548;8.658;2023-09-19T12:08:07;100269.25;;;22.26;54.83
29121;BME280;16191;49.548;8.658;2023-09-19T12:10:48;100265.25;;;22.89;54.60
29121;BME280;16191;49.548;8.658;2023-09-19T12:13:17;100268.88;;;22.50;54.24
29121;BME280;16191;49.548;8.658;2023-09-19T12:15:45;100278.06;;;22.27;55.07
29121;BME280;16191;49.548;8.658;2023-09-19T12:18:28;100265.84;;;22.14;53.06
29121;BME280;16191;49.548;8.658;2023-09-19T12:20:55;100256.81;;;21.66;54.18
29121;BME280;16191;49.548;8.658;2023-09-19T12:23:22;100258.75;;;22.34;53.63
29121;BME280;16191;49.548;8.658;2023-09-19T12:25:49;100266.16;;;22.31;53.35
29121;BME280;16191;49.548;8.658;2023-09-19T12:28:19;100264.75;;;22.27;53.70
29121;BME280;16191;49.548;8.658;2023-09-19T12:30:49;100251.06;;;22.41;52.67
29121;BME280;16191;49.548;8.658;2023-09-19T12:33:19;100263.69;;;22.68;51.96
29121;BME280;16191;49.548;8.658;2023-09-19T12:35:47;100245.38;;;22.84;53.37
29121;BME280;16191;49.548;8.658;2023-09-19T12:38:26;100241.53;;;23.25;52.14
29121;BME280;16191;49.548;8.658;2023-09-19T12:41:01;100245.66;;;23.47;52.43
29121;BME280;16191;49.548;8.658;2023-09-19T12:43:29;100236.25;;;23.06;53.37
29121;BME280;16191;49.548;8.658;2023-09-19T12:45:59;100230.66;;;23.46;52.85
29121;BME280;16191;49.548;8.658;2023-09-19T12:48:26;100227.81;;;23.67;50.31
29121;BME280;16191;49.548;8.658;2023-09-19T12:51:03;100225.75;;;23.51;48.16
29121;BME280;16191;49.548;8.658;2023-09-19T12:53:42;100241.16;;;23.10;49.30
29121;BME280;16191;49.548;8.658;2023-09-19T12:56:12;100224.72;;;23.99;47.72
29121;BME280;16191;49.548;8.658;2023-09-19T12:58:53;100227.97;;;23.92;47.49
29121;BME280;16191;49.548;8.658;2023-09-19T13:01:24;100227.16;;;24.37;45.86
29121;BME280;16191;49.548;8.658;2023-09-19T13:04:10;100231.38;;;23.85;47.58
29121;BME280;16191;49.548;8.658;2023-09-19T13:06:38;100229.19;;;23.34;48.62
29121;BME280;16191;49.548;8.658;2023-09-19T13:09:11;100232.63;;;23.90;47.56
29121;BME280;16191;49.548;8.658;2023-09-19T13:11:38;100212.22;;;24.80;47.48
29121;BME280;16191;49.548;8.658;2023-09-19T13:14:23;100212.09;;;23.73;47.77
29121;BME280;16191;49.548;8.658;2023-09-19T13:16:58;100217.50;;;24.09;47.83
29121;BME280;16191;49.548;8.658;2023-09-19T13:19:44;100209.75;;;25.04;46.83
29121;BME280;16191;49.548;8.658;2023-09-19T13:25:12;100207.47;;;24.74;46.67
29121;BME280;16191;49.548;8.658;2023-09-19T13:27:52;100204.50;;;25.46;44.75
29121;BME280;16191;49.548;8.658;2023-09-19T13:30:22;100209.19;;;24.57;45.23
29121;BME280;16191;49.548;8.658;2023-09-19T13:32:52;100202.44;;;24.88;45.33
29121;BME280;16191;49.548;8.658;2023-09-19T13:35:19;100200.22;;;25.02;45.24
29121;BME280;16191;49.548;8.658;2023-09-19T13:37:47;100194.59;;;24.69;46.25
29121;BME280;16191;49.548;8.658;2023-09-19T13:40:15;100209.50;;;24.36;46.37